Time;durP1;ratioP1;P1;durP2;ratioP2;P2;SDS_P1;SDS_P2;PMS_P1;PMS_P2;Temp;Humidity;BMP_temperature;BMP_pressure;BME280_temperature;BME280_humidity;BME280_pressure;Samples;Min_cycle;Max_cycle;Signal;HPM_P1;HPM_P2
2023/04/23 00:01:43;;;;;;;8.37;6.97;;;16.30;53.80;;;;;;5056425;28;20203;-69
2023/04/23 00:04:11;;;;;;;7.70;7.00;;;16.30;54.30;;;;;;5058863;28;20766;-64
2023/04/23 00:06:37;;;;;;;8.20;7.40;;;16.30;54.30;;;;;;5066394;28;20245;-67
2023/04/23 00:09:02;;;;;;;8.13;7.07;;;16.30;54.70;;;;;;5049202;28;20226;-65
2023/04/23 00:11:28;;;;;;;8.43;7.63;;;16.30;54.60;;;;;;5047611;28;20203;-65
2023/04/23 00:13:54;;;;;;;9.50;8.00;;;16.30;54.70;;;;;;5046930;28;20331;-65
2023/04/23 00:16:20;;;;;;;9.63;7.57;;;16.20;55.00;;;;;;5047318;28;20220;-65
2023/04/23 00:18:46;;;;;;;8.53;7.53;;;16.20;55.30;;;;;;5045775;28;20211;-64
2023/04/23 00:21:12;;;;;;;8.30;7.50;;;16.20;55.50;;;;;;5043945;28;20202;-66
2023/04/23 00:23:39;;;;;;;9.03;8.07;;;16.10;55.40;;;;;;5050365;28;20202;-65
2023/04/23 00:26:05;;;;;;;8.30;7.30;;;16.10;55.70;;;;;;5057994;28;20226;-64
2023/04/23 00:28:30;;;;;;;9.27;7.40;;;16.10;56.40;;;;;;5058259;28;20241;-65
2023/04/23 00:30:56;;;;;;;9.70;7.90;;;16.10;56.70;;;;;;5058439;28;20203;-64
2023/04/23 00:33:21;;;;;;;9.63;7.83;;;16.10;57.20;;;;;;5056356;28;20215;-63
2023/04/23 00:35:47;;;;;;;8.03;7.27;;;16.10;56.80;;;;;;5056577;28;20243;-63
2023/04/23 00:38:12;;;;;;;8.73;7.93;;;16.10;57.00;;;;;;5057543;28;20199;-64
2023/04/23 00:40:39;;;;;;;8.50;7.70;;;16.10;57.10;;;;;;5058270;28;20562;-64
2023/04/23 00:43:05;;;;;;;8.53;6.93;;;16.00;57.20;;;;;;5057116;28;20190;-65
2023/04/23 00:45:31;;;;;;;10.23;7.57;;;16.00;58.00;;;;;;5053903;28;20195;-65
2023/04/23 00:47:57;;;;;;;9.17;7.47;;;16.00;58.00;;;;;;5055565;28;20208;-78
2023/04/23 00:50:23;;;;;;;9.17;7.70;;;16.00;58.20;;;;;;5052392;28;20194;-65
2023/04/23 00:52:48;;;;;;;11.33;8.40;;;16.00;57.90;;;;;;5047250;28;20202;-64
2023/04/23 00:55:14;;;;;;;8.50;7.70;;;16.00;58.40;;;;;;5044673;28;20196;-66
2023/04/23 00:57:41;;;;;;;8.40;7.60;;;16.00;58.60;;;;;;5043969;28;20206;-66
2023/04/23 01:00:07;;;;;;;8.77;7.90;;;16.00;58.90;;;;;;5052102;28;20281;-64
2023/04/23 01:02:35;;;;;;;8.40;7.00;;;16.00;59.00;;;;;;5052010;28;20213;-65
2023/04/23 01:05:02;;;;;;;9.17;8.27;;;16.00;59.00;;;;;;5057662;28;20199;-67
2023/04/23 01:07:28;;;;;;;11.17;8.27;;;15.90;59.20;;;;;;5051580;28;20217;-65
2023/04/23 01:09:54;;;;;;;9.63;8.73;;;15.90;59.10;;;;;;5057630;28;20234;-65
2023/04/23 01:12:20;;;;;;;8.07;7.27;;;15.90;59.70;;;;;;5044106;28;20193;-65
2023/04/23 01:14:46;;;;;;;9.73;7.53;;;15.80;60.30;;;;;;5055373;28;20610;-65
2023/04/23 01:17:12;;;;;;;8.57;7.37;;;15.80;60.50;;;;;;5057566;28;20993;-65
2023/04/23 01:19:38;;;;;;;10.33;8.33;;;15.80;61.30;;;;;;5055721;28;20199;-65
2023/04/23 01:22:14;;;;;;;11.63;8.27;;;15.90;62.20;;;;;;5049556;28;20192;-64
2023/04/23 01:24:41;;;;;;;9.00;8.10;;;15.90;63.00;;;;;;5050041;28;20198;-64
2023/04/23 01:27:07;;;;;;;9.93;8.07;;;15.80;63.50;;;;;;5057801;28;20191;-64
2023/04/23 01:29:33;;;;;;;9.13;7.27;;;15.80;64.40;;;;;;5055701;28;20237;-64
2023/04/23 01:31:59;;;;;;;10.37;8.50;;;15.80;65.00;;;;;;5056668;28;20206;-65
2023/04/23 01:34:25;;;;;;;9.57;8.57;;;15.80;66.20;;;;;;5056886;28;20212;-63
2023/04/23 01:36:51;;;;;;;9.90;7.53;;;15.80;68.50;;;;;;5056364;28;20723;-63
2023/04/23 01:39:17;;;;;;;12.43;8.30;;;15.80;70.20;;;;;;5057456;28;20358;-65
2023/04/23 01:41:43;;;;;;;8.70;8.00;;;15.80;73.30;;;;;;5057221;28;20194;-64
2023/04/23 01:44:09;;;;;;;10.17;7.97;;;15.60;77.10;;;;;;5054510;28;20223;-65
2023/04/23 01:46:35;;;;;;;7.23;6.70;;;15.50;84.00;;;;;;5051782;28;20283;-64
2023/04/23 01:49:01;;;;;;;10.27;8.33;;;15.30;90.20;;;;;;5057241;28;20221;-65
2023/04/23 01:51:26;;;;;;;9.30;8.30;;;15.10;94.30;;;;;;5057327;28;20285;-64
2023/04/23 01:53:52;;;;;;;11.27;8.60;;;15.00;99.50;;;;;;5056083;28;20194;-64
2023/04/23 01:56:21;;;;;;;9.93;8.93;;;14.90;99.90;;;;;;5050878;28;20577;-64
2023/04/23 01:58:47;;;;;;;12.33;8.90;;;14.90;99.90;;;;;;5056943;28;20206;-64
2023/04/23 02:01:12;;;;;;;10.93;9.13;;;14.80;99.90;;;;;;5056347;28;20199;-66
2023/04/23 02:03:38;;;;;;;10.50;9.07;;;14.70;99.90;;;;;;5056198;28;20195;-66
2023/04/23 02:06:03;;;;;;;11.60;9.40;;;14.70;99.90;;;;;;5053269;28;20309;-64
2023/04/23 02:08:29;;;;;;;11.00;9.53;;;14.60;99.90;;;;;;5055370;28;20216;-64
2023/04/23 02:10:56;;;;;;;9.83;8.83;;;14.50;99.90;;;;;;5054514;28;20641;-68
2023/04/23 02:13:21;;;;;;;11.20;10.00;;;14.50;99.90;;;;;;5056909;28;20327;-65
2023/04/23 02:15:47;;;;;;;10.97;9.83;;;14.50;99.90;;;;;;5056714;28;20228;-65
2023/04/23 02:18:12;;;;;;;9.30;8.47;;;14.50;99.90;;;;;;5056782;28;20198;-67
2023/04/23 02:20:40;;;;;;;10.40;9.30;;;14.50;99.90;;;;;;5051618;28;20699;-66
2023/04/23 02:23:07;;;;;;;14.10;10.10;;;14.50;99.90;;;;;;5050113;28;20200;-65
2023/04/23 02:25:32;;;;;;;10.63;9.63;;;14.50;99.90;;;;;;5055759;28;20210;-65
2023/04/23 02:28:00;;;;;;;10.53;9.43;;;14.50;99.90;;;;;;5043517;28;20217;-64
2023/04/23 02:30:26;;;;;;;12.13;10.57;;;14.50;99.90;;;;;;5047595;28;20289;-65
2023/04/23 02:32:51;;;;;;;10.97;9.90;;;14.50;99.90;;;;;;5048511;28;20360;-64
2023/04/23 02:35:17;;;;;;;10.87;9.77;;;14.50;99.90;;;;;;5045371;28;20303;-64
2023/04/23 02:37:42;;;;;;;11.23;10.13;;;14.50;99.90;;;;;;5045784;28;20815;-64
2023/04/23 02:40:08;;;;;;;10.40;9.40;;;14.50;99.90;;;;;;5046501;28;20190;-65
2023/04/23 02:42:34;;;;;;;11.90;9.90;;;14.50;99.90;;;;;;5044634;28;20289;-65
2023/04/23 02:44:59;;;;;;;12.07;9.57;;;14.50;99.90;;;;;;5045400;28;20298;-64
2023/04/23 02:47:25;;;;;;;10.33;9.17;;;14.50;99.90;;;;;;5047228;28;20228;-65
2023/04/23 02:49:50;;;;;;;10.33;9.33;;;14.50;99.90;;;;;;5046931;28;20293;-65
2023/04/23 02:52:16;;;;;;;10.40;9.33;;;14.40;99.90;;;;;;5046705;28;20202;-65
2023/04/23 02:54:42;;;;;;;11.60;10.40;;;14.50;99.90;;;;;;5047451;28;20203;-65
2023/04/23 02:57:07;;;;;;;11.17;9.63;;;14.50;99.90;;;;;;5044577;28;20287;-65
2023/04/23 02:59:33;;;;;;;11.10;10.00;;;14.40;99.90;;;;;;5045587;28;20207;-65
2023/04/23 03:01:58;;;;;;;10.30;9.30;;;14.50;99.90;;;;;;5046380;28;20205;-65
2023/04/23 03:04:23;;;;;;;10.10;9.13;;;14.50;99.90;;;;;;5046409;28;20729;-65
2023/04/23 03:06:49;;;;;;;10.10;9.10;;;14.40;99.90;;;;;;5049198;28;20202;-65
2023/04/23 03:09:15;;;;;;;10.73;9.57;;;14.50;99.90;;;;;;5045974;28;20199;-65
2023/04/23 03:11:41;;;;;;;9.50;8.60;;;14.50;99.90;;;;;;5037240;28;20245;-65
2023/04/23 03:14:06;;;;;;;9.53;8.63;;;14.50;99.90;;;;;;5052585;28;20618;-65
2023/04/23 03:16:31;;;;;;;10.47;9.43;;;14.50;99.90;;;;;;5052270;28;20213;-65
2023/04/23 03:18:57;;;;;;;10.17;9.20;;;14.50;99.90;;;;;;5048421;28;20198;-66
2023/04/23 03:21:23;;;;;;;9.43;8.47;;;14.50;99.90;;;;;;5050920;28;20229;-65
2023/04/23 03:23:49;;;;;;;10.77;8.87;;;14.60;99.90;;;;;;5047857;28;20198;-66
2023/04/23 03:26:14;;;;;;;8.50;7.63;;;14.60;99.90;;;;;;5049536;28;20249;-66
2023/04/23 03:28:40;;;;;;;11.73;8.20;;;14.60;99.90;;;;;;5049218;28;20537;-67
2023/04/23 03:31:05;;;;;;;9.97;8.50;;;14.60;99.90;;;;;;5049540;28;20203;-66
2023/04/23 03:33:31;;;;;;;8.93;7.90;;;14.70;99.90;;;;;;5047382;28;20268;-66
2023/04/23 03:35:57;;;;;;;10.90;8.67;;;14.70;99.90;;;;;;5050017;28;20237;-65
2023/04/23 03:38:22;;;;;;;8.80;7.67;;;14.70;99.90;;;;;;5050123;28;20559;-66
2023/04/23 03:40:48;;;;;;;12.33;9.30;;;14.70;99.90;;;;;;5050036;28;20226;-65
2023/04/23 03:43:13;;;;;;;10.00;9.07;;;14.70;99.90;;;;;;5052180;28;20608;-66
2023/04/23 03:45:39;;;;;;;10.30;8.80;;;14.70;99.90;;;;;;5048518;28;20187;-66
2023/04/23 03:48:04;;;;;;;12.80;8.80;;;14.60;99.90;;;;;;5049054;28;20330;-67
2023/04/23 03:50:33;;;;;;;10.93;9.73;;;14.60;99.90;;;;;;5048961;28;20591;-65
2023/04/23 03:52:58;;;;;;;10.33;8.53;;;14.60;99.90;;;;;;5049161;28;20294;-65
2023/04/23 03:55:24;;;;;;;9.43;8.63;;;14.60;99.90;;;;;;5052398;28;20658;-66
2023/04/23 03:57:49;;;;;;;9.83;8.90;;;14.60;99.90;;;;;;5046023;28;20222;-65
2023/04/23 04:00:15;;;;;;;9.93;8.93;;;14.60;99.90;;;;;;5048208;28;21005;-65
2023/04/23 04:02:41;;;;;;;11.40;9.43;;;14.60;99.90;;;;;;5049334;28;20294;-65
2023/04/23 04:05:06;;;;;;;10.10;9.10;;;14.60;99.90;;;;;;5052607;28;20190;-65
2023/04/23 04:07:33;;;;;;;9.37;8.47;;;14.60;99.90;;;;;;5046216;28;20577;-65
2023/04/23 04:09:58;;;;;;;9.57;8.60;;;14.60;99.90;;;;;;5053055;28;20699;-65
2023/04/23 04:12:24;;;;;;;9.77;8.80;;;14.60;99.90;;;;;;5049755;28;20267;-65
2023/04/23 04:14:50;;;;;;;9.53;8.70;;;14.60;99.90;;;;;;5046971;28;20253;-65
2023/04/23 04:17:15;;;;;;;10.70;9.27;;;14.60;99.90;;;;;;5047461;28;20206;-65
2023/04/23 04:19:41;;;;;;;8.97;8.10;;;14.60;99.90;;;;;;5048907;28;20702;-65
2023/04/23 04:22:08;;;;;;;9.90;8.27;;;14.60;99.90;;;;;;5048378;28;20204;-65
2023/04/23 04:24:34;;;;;;;10.60;9.57;;;14.60;99.90;;;;;;5047868;28;20203;-65
2023/04/23 04:27:00;;;;;;;8.90;8.00;;;14.60;99.90;;;;;;5048104;28;20679;-65
2023/04/23 04:29:26;;;;;;;8.63;7.73;;;14.60;99.90;;;;;;5039859;28;20191;-65
2023/04/23 04:31:53;;;;;;;9.13;7.47;;;14.60;99.90;;;;;;5049608;28;20207;-65
2023/04/23 04:34:19;;;;;;;6.90;6.23;;;14.60;99.90;;;;;;5048795;28;20205;-65
2023/04/23 04:36:45;;;;;;;9.33;6.53;;;14.60;99.90;;;;;;5048932;28;20221;-65
2023/04/23 04:39:12;;;;;;;6.80;6.20;;;14.70;99.90;;;;;;5046395;28;20190;-65
2023/04/23 04:41:38;;;;;;;6.73;6.13;;;14.60;99.90;;;;;;5048301;28;20202;-65
2023/04/23 04:44:04;;;;;;;7.03;6.33;;;14.50;99.90;;;;;;5048170;28;20213;-65
2023/04/23 04:46:30;;;;;;;6.80;5.70;;;14.50;99.90;;;;;;5048233;28;20198;-66
2023/04/23 04:48:56;;;;;;;7.17;5.80;;;14.50;99.90;;;;;;5048031;28;20201;-65
2023/04/23 04:51:21;;;;;;;6.60;6.00;;;14.50;99.90;;;;;;5043463;28;20587;-66
2023/04/23 04:53:47;;;;;;;6.53;5.90;;;14.50;99.90;;;;;;5048599;28;20607;-65
2023/04/23 04:56:12;;;;;;;6.13;5.63;;;14.50;99.90;;;;;;5048667;28;20217;-65
2023/04/23 04:58:38;;;;;;;8.13;5.83;;;14.50;99.90;;;;;;5047310;28;20240;-65
2023/04/23 05:01:04;;;;;;;7.77;5.40;;;14.50;99.90;;;;;;5048236;28;20652;-64
2023/04/23 05:03:30;;;;;;;7.07;5.97;;;14.40;99.90;;;;;;5045584;28;20221;-64
2023/04/23 05:05:57;;;;;;;9.47;6.27;;;14.30;99.90;;;;;;5047899;28;20680;-64
2023/04/23 05:08:23;;;;;;;6.73;6.10;;;14.20;99.90;;;;;;5047635;28;20217;-64
2023/04/23 05:10:53;;;;;;;8.00;6.67;;;14.20;99.90;;;;;;5047607;28;20229;-64
2023/04/23 05:13:18;;;;;;;8.23;6.67;;;14.20;99.90;;;;;;5046029;28;20283;-63
2023/04/23 05:15:45;;;;;;;6.37;5.77;;;14.30;99.90;;;;;;5048335;28;20261;-63
2023/04/23 05:18:11;;;;;;;8.47;7.40;;;14.40;99.90;;;;;;5050451;28;20204;-63
2023/04/23 05:20:37;;;;;;;9.37;6.50;;;14.50;99.90;;;;;;5046564;28;20198;-64
2023/04/23 05:23:02;;;;;;;8.50;7.00;;;14.60;99.90;;;;;;5048134;28;20407;-64
2023/04/23 05:25:29;;;;;;;10.20;6.93;;;14.60;99.90;;;;;;5045717;28;20277;-64
2023/04/23 05:27:55;;;;;;;6.10;5.60;;;14.60;99.90;;;;;;5046250;28;20230;-64
2023/04/23 05:30:21;;;;;;;9.10;6.73;;;14.60;99.90;;;;;;5047145;28;21728;-64
2023/04/23 05:32:46;;;;;;;8.60;6.93;;;14.70;99.90;;;;;;5050465;28;20676;-64
2023/04/23 05:35:12;;;;;;;7.77;7.00;;;14.70;99.90;;;;;;5042511;28;20306;-64
2023/04/23 05:37:37;;;;;;;7.53;6.73;;;14.70;99.90;;;;;;5044491;28;20265;-64
2023/04/23 05:40:05;;;;;;;9.03;6.80;;;14.60;99.90;;;;;;5051026;28;20704;-64
2023/04/23 05:42:31;;;;;;;7.33;6.53;;;14.60;99.90;;;;;;5047333;28;21199;-64
2023/04/23 05:44:56;;;;;;;7.70;6.63;;;14.50;99.90;;;;;;5045829;28;20192;-65
2023/04/23 05:47:22;;;;;;;7.20;6.60;;;14.40;99.90;;;;;;5047554;28;20304;-64
2023/04/23 05:49:47;;;;;;;7.60;6.63;;;14.40;99.90;;;;;;5044987;28;20272;-64
2023/04/23 05:52:13;;;;;;;7.90;6.37;;;14.40;99.90;;;;;;5046716;28;20319;-64
2023/04/23 05:54:38;;;;;;;7.33;6.60;;;14.40;99.90;;;;;;5046888;28;20230;-64
2023/04/23 05:57:04;;;;;;;7.70;6.67;;;14.40;99.90;;;;;;5047023;28;20879;-64
2023/04/23 05:59:30;;;;;;;10.43;7.17;;;14.40;99.90;;;;;;5041351;28;20613;-64
2023/04/23 06:01:57;;;;;;;8.87;6.17;;;14.40;99.90;;;;;;5043971;28;20261;-64
2023/04/23 06:04:22;;;;;;;7.07;6.40;;;14.40;99.90;;;;;;5045064;28;20195;-64
2023/04/23 06:06:47;;;;;;;6.60;6.00;;;14.40;99.90;;;;;;5048067;28;20291;-64
2023/04/23 06:09:13;;;;;;;8.73;6.53;;;14.40;99.90;;;;;;5043469;28;20206;-65
2023/04/23 06:11:38;;;;;;;7.50;5.60;;;14.50;99.90;;;;;;5047410;28;20198;-64
2023/04/23 06:14:04;;;;;;;7.40;5.97;;;14.50;99.90;;;;;;5046975;28;20210;-65
2023/04/23 06:16:30;;;;;;;6.57;5.87;;;14.60;99.90;;;;;;5046586;28;20267;-64
2023/04/23 06:18:56;;;;;;;7.37;5.63;;;14.60;99.90;;;;;;5045358;28;20567;-65
2023/04/23 06:21:22;;;;;;;7.23;6.50;;;14.60;99.90;;;;;;5045646;28;20203;-64
2023/04/23 06:23:47;;;;;;;8.10;6.00;;;14.70;99.90;;;;;;5046446;28;20209;-64
2023/04/23 06:26:13;;;;;;;8.70;6.10;;;14.70;99.90;;;;;;5046436;28;20203;-64
2023/04/23 06:28:41;;;;;;;6.40;5.80;;;14.70;99.90;;;;;;5046544;28;20922;-64
2023/04/23 06:31:07;;;;;;;6.73;6.07;;;14.80;99.90;;;;;;5044226;28;20213;-65
2023/04/23 06:33:35;;;;;;;7.00;6.07;;;14.80;99.90;;;;;;5046937;28;20214;-64
2023/04/23 06:36:00;;;;;;;8.63;5.33;;;14.80;99.90;;;;;;5047652;28;20226;-63
2023/04/23 06:38:26;;;;;;;5.80;5.20;;;14.90;99.90;;;;;;5046902;28;20565;-64
2023/04/23 06:40:51;;;;;;;6.87;5.67;;;14.90;99.90;;;;;;5044252;28;20290;-64
2023/04/23 06:43:17;;;;;;;5.63;5.13;;;14.90;99.90;;;;;;5045820;28;20203;-65
2023/04/23 06:45:42;;;;;;;6.87;6.03;;;15.00;99.90;;;;;;5046540;28;20195;-65
2023/04/23 06:48:08;;;;;;;9.90;6.13;;;15.00;99.90;;;;;;5047848;28;20191;-65
2023/04/23 06:50:33;;;;;;;5.10;4.70;;;15.00;99.90;;;;;;5043572;28;20191;-63
2023/04/23 06:52:59;;;;;;;7.13;5.80;;;14.90;99.90;;;;;;5045500;28;20657;-66
2023/04/23 06:55:25;;;;;;;5.30;4.83;;;14.90;99.90;;;;;;5044790;28;20260;-63
2023/04/23 06:57:52;;;;;;;7.07;6.37;;;14.90;99.90;;;;;;5046560;28;20715;-64
2023/04/23 07:00:18;;;;;;;5.90;5.17;;;14.80;99.90;;;;;;5046401;28;20229;-64
2023/04/23 07:02:45;;;;;;;6.93;5.43;;;14.60;99.90;;;;;;5048953;28;20199;-64
2023/04/23 07:05:10;;;;;;;5.50;5.10;;;14.50;99.90;;;;;;5046539;28;20203;-64
2023/04/23 07:07:36;;;;;;;5.00;4.60;;;14.40;99.90;;;;;;5044146;28;20213;-66
2023/04/23 07:10:02;;;;;;;6.47;5.50;;;14.40;99.90;;;;;;5045926;28;20617;-65
2023/04/23 07:12:28;;;;;;;8.00;5.87;;;14.30;99.90;;;;;;5046036;28;20572;-64
2023/04/23 07:14:54;;;;;;;7.47;5.33;;;14.30;99.90;;;;;;5045796;28;20653;-64
2023/04/23 07:17:19;;;;;;;6.00;5.50;;;14.30;99.90;;;;;;5045473;28;20775;-64
2023/04/23 07:19:45;;;;;;;5.97;5.40;;;14.20;99.90;;;;;;5046205;28;20669;-65
2023/04/23 07:22:10;;;;;;;8.80;5.27;;;14.20;99.90;;;;;;5044422;28;20199;-64
2023/04/23 07:24:35;;;;;;;9.40;6.53;;;14.20;99.90;;;;;;5046666;28;20243;-64
2023/04/23 07:27:02;;;;;;;6.20;5.60;;;14.30;99.90;;;;;;5048667;28;20229;-64
2023/04/23 07:29:28;;;;;;;6.33;5.53;;;14.30;99.90;;;;;;5044894;28;20198;-65
2023/04/23 07:31:53;;;;;;;6.77;5.77;;;14.40;99.90;;;;;;5046334;28;20217;-65
2023/04/23 07:34:19;;;;;;;7.97;6.80;;;14.40;99.90;;;;;;5043996;28;20206;-66
2023/04/23 07:36:44;;;;;;;6.77;6.07;;;14.40;99.90;;;;;;5045447;28;20253;-64
2023/04/23 07:39:10;;;;;;;7.27;6.47;;;14.40;99.90;;;;;;5045010;28;21579;-64
2023/04/23 07:41:36;;;;;;;8.23;5.63;;;14.50;99.90;;;;;;5045731;28;20201;-64
2023/04/23 07:44:01;;;;;;;7.00;6.30;;;14.40;99.90;;;;;;5050248;28;20191;-65
2023/04/23 07:46:27;;;;;;;6.77;6.17;;;14.50;99.90;;;;;;5040682;28;20577;-64
2023/04/23 07:48:52;;;;;;;7.30;6.60;;;14.50;99.90;;;;;;5046272;28;20234;-64
2023/04/23 07:51:18;;;;;;;6.73;6.00;;;14.50;99.90;;;;;;5044414;28;20218;-63
2023/04/23 07:53:45;;;;;;;7.73;6.93;;;14.40;99.90;;;;;;5047117;28;20211;-64
2023/04/23 07:56:11;;;;;;;7.10;6.50;;;14.30;99.90;;;;;;5043531;28;20309;-63
2023/04/23 07:58:37;;;;;;;7.57;6.87;;;14.20;99.90;;;;;;5045669;28;20208;-63
2023/04/23 08:01:02;;;;;;;8.80;6.93;;;14.30;99.90;;;;;;5049574;28;20331;-64
2023/04/23 08:03:28;;;;;;;6.70;6.10;;;14.20;99.90;;;;;;5047616;28;20220;-63
2023/04/23 08:05:55;;;;;;;8.60;6.87;;;14.20;99.90;;;;;;5048982;28;20725;-64
2023/04/23 08:08:20;;;;;;;8.47;6.77;;;14.30;99.90;;;;;;5048781;28;20209;-64
2023/04/23 08:10:46;;;;;;;9.10;7.33;;;14.30;99.90;;;;;;5046865;28;20195;-65
2023/04/23 08:13:11;;;;;;;7.77;6.60;;;14.30;99.90;;;;;;5049943;28;20270;-65
2023/04/23 08:15:37;;;;;;;9.47;6.63;;;14.40;99.90;;;;;;5049541;28;20210;-64
2023/04/23 08:18:03;;;;;;;9.37;6.97;;;14.40;99.90;;;;;;5049294;28;20214;-64
2023/04/23 08:20:28;;;;;;;6.30;5.67;;;14.50;99.90;;;;;;5049263;28;20198;-65
2023/04/23 08:22:55;;;;;;;7.10;6.40;;;14.60;99.90;;;;;;5049495;28;20259;-64
2023/04/23 08:25:20;;;;;;;6.80;6.10;;;14.70;99.90;;;;;;5052089;28;20237;-64
2023/04/23 08:27:46;;;;;;;9.40;6.73;;;14.70;99.90;;;;;;5048757;28;20665;-64
2023/04/23 08:30:12;;;;;;;7.03;6.43;;;14.80;99.90;;;;;;5051258;28;20332;-64
2023/04/23 08:32:40;;;;;;;6.77;6.17;;;14.90;99.90;;;;;;5045460;28;20222;-63
2023/04/23 08:35:07;;;;;;;7.80;5.87;;;15.10;99.90;;;;;;5046859;28;20594;-66
2023/04/23 08:37:33;;;;;;;7.27;6.57;;;15.10;99.90;;;;;;5048677;28;20284;-64
2023/04/23 08:40:00;;;;;;;6.47;5.87;;;15.20;99.90;;;;;;5049048;28;20743;-63
2023/04/23 08:42:39;;;;;;;6.87;6.17;;;15.30;99.90;;;;;;5048937;28;20320;-64
2023/04/23 08:45:05;;;;;;;8.73;7.13;;;15.40;99.90;;;;;;5046305;28;20681;-64
2023/04/23 08:47:32;;;;;;;7.03;6.43;;;15.40;99.90;;;;;;5048033;28;20283;-64
2023/04/23 08:49:58;;;;;;;6.70;6.10;;;15.50;99.90;;;;;;5047565;28;20717;-66
2023/04/23 08:52:25;;;;;;;6.80;6.23;;;15.50;99.90;;;;;;5047745;28;20202;-65
2023/04/23 08:54:53;;;;;;;7.13;6.53;;;15.40;99.90;;;;;;5046515;28;20787;-65
2023/04/23 08:57:19;;;;;;;8.40;7.17;;;15.30;99.90;;;;;;5049241;28;20740;-65
2023/04/23 08:59:46;;;;;;;7.83;6.53;;;15.10;99.90;;;;;;5048601;28;20334;-63
2023/04/23 09:02:14;;;;;;;8.13;7.33;;;14.90;99.90;;;;;;5048432;28;20194;-63
2023/04/23 09:04:40;;;;;;;7.87;7.20;;;14.80;99.90;;;;;;5046086;28;20229;-63
2023/04/23 09:07:10;;;;;;;7.80;7.10;;;14.80;99.90;;;;;;5047713;28;20236;-63
2023/04/23 09:09:38;;;;;;;7.07;6.50;;;14.70;99.90;;;;;;5047382;28;21014;-63
2023/04/23 09:12:05;;;;;;;7.57;6.47;;;14.70;99.90;;;;;;5050017;28;20493;-63
2023/04/23 09:14:32;;;;;;;9.03;6.77;;;14.70;99.90;;;;;;5042437;28;20206;-64
2023/04/23 09:16:57;;;;;;;8.90;7.57;;;14.60;99.90;;;;;;5047946;28;20585;-63
2023/04/23 09:19:26;;;;;;;6.50;5.90;;;14.50;99.90;;;;;;5048477;28;20202;-64
2023/04/23 09:21:52;;;;;;;7.47;6.70;;;14.40;99.90;;;;;;5047854;28;20202;-64
2023/04/23 09:24:21;;;;;;;6.73;6.03;;;14.40;99.90;;;;;;5046535;28;20260;-64
2023/04/23 09:26:50;;;;;;;14.30;5.27;;;14.30;99.90;;;;;;5046460;28;20214;-65
2023/04/23 09:29:18;;;;;;;3.87;3.57;;;14.20;99.90;;;;;;5044449;28;20198;-64
2023/04/23 09:31:48;;;;;;;3.97;3.67;;;14.20;99.90;;;;;;5047714;28;20290;-65
2023/04/23 09:34:18;;;;;;;3.57;3.27;;;14.10;99.90;;;;;;5049495;28;20755;-64
2023/04/23 09:36:46;;;;;;;3.47;3.13;;;14.00;99.90;;;;;;5044308;28;20231;-64
2023/04/23 09:39:13;;;;;;;3.10;2.90;;;13.90;99.90;;;;;;5036899;28;20212;-66
2023/04/23 09:41:38;;;;;;;3.37;3.07;;;13.90;99.90;;;;;;5043032;28;20286;-65
2023/04/23 09:44:04;;;;;;;3.60;3.30;;;13.80;99.90;;;;;;5037072;28;20314;-65
2023/04/23 09:46:42;;;;;;;4.10;3.70;;;13.70;99.90;;;;;;5044581;28;20231;-65
2023/04/23 09:49:09;;;;;;;3.73;3.43;;;13.70;99.90;;;;;;5044856;28;20202;-63
2023/04/23 09:51:46;;;;;;;4.00;3.60;;;13.70;99.90;;;;;;5047587;28;20623;-63
2023/04/23 09:54:21;;;;;;;3.90;3.47;;;13.80;99.90;;;;;;5047559;28;20225;-63
2023/04/23 09:56:52;;;;;;;4.03;3.70;;;13.80;99.90;;;;;;5045863;28;20222;-63
2023/04/23 09:59:22;;;;;;;3.40;3.10;;;13.70;99.90;;;;;;5046675;28;20285;-65
2023/04/23 10:01:48;;;;;;;4.37;3.57;;;13.80;99.90;;;;;;5046922;28;20226;-64
2023/04/23 10:04:19;;;;;;;2.93;2.73;;;13.80;99.90;;;;;;5054712;28;20275;-65
2023/04/23 10:06:45;;;;;;;2.80;2.60;;;13.70;99.90;;;;;;5047352;28;20629;-66
2023/04/23 10:09:11;;;;;;;3.60;3.30;;;13.60;99.90;;;;;;5058460;28;20219;-84
2023/04/23 10:11:37;;;;;;;5.20;4.67;;;13.70;99.90;;;;;;5057608;28;20295;-68
2023/04/23 10:14:03;;;;;;;4.67;4.27;;;13.90;99.90;;;;;;5056508;28;20687;-65
2023/04/23 10:16:28;;;;;;;6.03;5.47;;;13.90;99.90;;;;;;5054368;28;20206;-65
2023/04/23 10:18:58;;;;;;;5.17;4.43;;;14.00;99.90;;;;;;5044955;28;20195;-65
2023/04/23 10:21:27;;;;;;;6.20;5.70;;;14.00;99.90;;;;;;5043618;28;20202;-65
2023/04/23 10:23:55;;;;;;;7.40;6.70;;;14.10;99.90;;;;;;5039795;28;20656;-67
2023/04/23 10:26:23;;;;;;;9.60;8.27;;;14.10;99.90;;;;;;5041583;28;20593;-64
2023/04/23 10:28:53;;;;;;;10.53;9.27;;;14.20;99.90;;;;;;5038599;28;20268;-65
2023/04/23 10:31:19;;;;;;;10.90;8.70;;;14.30;99.90;;;;;;5042919;28;20708;-65
2023/04/23 10:33:47;;;;;;;9.60;8.70;;;14.40;99.90;;;;;;5041366;28;20293;-66
2023/04/23 10:36:13;;;;;;;8.97;7.27;;;14.50;99.90;;;;;;5037292;28;21000;-67
2023/04/23 10:38:40;;;;;;;8.63;7.73;;;14.50;99.90;;;;;;5031298;28;20205;-65
2023/04/23 10:41:07;;;;;;;8.33;7.60;;;14.60;99.90;;;;;;5040166;28;20828;-64
2023/04/23 10:43:32;;;;;;;8.63;7.77;;;14.70;99.90;;;;;;5046810;28;20196;-64
2023/04/23 10:45:59;;;;;;;9.33;7.57;;;14.80;99.90;;;;;;5044674;28;20576;-64
2023/04/23 10:48:27;;;;;;;8.40;7.57;;;14.90;99.90;;;;;;5046189;28;20203;-65
2023/04/23 10:50:59;;;;;;;9.13;8.23;;;15.00;99.90;;;;;;5037764;28;20199;-65
2023/04/23 10:53:25;;;;;;;8.73;7.70;;;15.20;99.90;;;;;;5046860;28;20191;-64
2023/04/23 10:56:06;;;;;;;9.23;8.27;;;15.40;99.90;;;;;;5046413;28;20190;-65
2023/04/23 10:58:49;;;;;;;8.87;8.07;;;15.60;99.90;;;;;;5041718;28;20730;-65
2023/04/23 11:01:17;;;;;;;9.97;8.97;;;15.70;99.90;;;;;;5050192;28;20200;-64
2023/04/23 11:03:43;;;;;;;9.50;8.60;;;15.60;99.90;;;;;;5045211;28;20548;-65
2023/04/23 11:06:14;;;;;;;9.17;8.27;;;15.40;99.90;;;;;;5046291;28;20828;-64
2023/04/23 11:08:55;;;;;;;8.73;7.83;;;15.20;99.90;;;;;;5043003;28;20203;-67
2023/04/23 11:11:40;;;;;;;9.53;8.33;;;15.10;99.90;;;;;;5043365;28;20710;-63
2023/04/23 11:14:15;;;;;;;9.63;8.63;;;15.10;99.90;;;;;;5051922;28;20199;-63
2023/04/23 11:16:40;;;;;;;10.07;9.07;;;15.00;99.90;;;;;;5043099;28;20648;-64
2023/04/23 11:19:11;;;;;;;9.87;8.37;;;15.00;99.90;;;;;;5036842;28;20199;-63
2023/04/23 11:22:03;;;;;;;9.37;8.47;;;15.00;99.90;;;;;;5036284;28;20200;-63
2023/04/23 11:24:31;;;;;;;9.97;8.83;;;15.10;99.90;;;;;;5037731;28;20205;-62
2023/04/23 11:26:58;;;;;;;9.90;8.70;;;15.20;99.90;;;;;;5050652;28;20217;-62
2023/04/23 11:29:25;;;;;;;10.40;9.40;;;15.20;99.90;;;;;;5053460;28;20198;-61
2023/04/23 11:31:52;;;;;;;8.67;7.47;;;15.30;99.90;;;;;;5055796;28;20194;-63
2023/04/23 11:34:17;;;;;;;9.47;7.93;;;15.40;99.90;;;;;;5053711;28;20217;-62
2023/04/23 11:36:44;;;;;;;8.80;8.00;;;15.30;99.90;;;;;;5057856;28;20234;-62
2023/04/23 11:39:11;;;;;;;8.83;7.43;;;15.30;99.90;;;;;;5059517;28;20551;-63
2023/04/23 11:41:37;;;;;;;10.67;7.73;;;15.50;99.90;;;;;;5058209;28;20202;-64
2023/04/23 11:44:03;;;;;;;9.00;8.10;;;15.70;99.90;;;;;;5059493;28;20211;-62
2023/04/23 11:46:29;;;;;;;9.83;8.83;;;15.90;99.90;;;;;;5050596;28;20533;-63
2023/04/23 11:48:54;;;;;;;8.87;8.03;;;16.00;99.90;;;;;;5047703;28;20206;-62
2023/04/23 11:51:26;;;;;;;10.87;8.17;;;16.60;99.90;;;;;;5049742;28;20518;-62
2023/04/23 11:53:52;;;;;;;8.47;7.67;;;17.20;99.90;;;;;;5044770;28;20216;-64
2023/04/23 11:56:18;;;;;;;8.13;7.33;;;17.50;99.90;;;;;;5042353;28;20227;-63
2023/04/23 11:58:44;;;;;;;6.90;6.27;;;17.60;99.90;;;;;;5042652;28;20209;-63
2023/04/23 12:01:12;;;;;;;8.33;6.33;;;17.60;99.90;;;;;;5042904;28;20204;-63
2023/04/23 12:03:37;;;;;;;7.33;6.60;;;17.90;99.90;;;;;;5040096;28;20547;-62
2023/04/23 12:06:04;;;;;;;7.50;6.73;;;18.30;99.90;;;;;;5045756;28;20730;-64
2023/04/23 12:08:34;;;;;;;7.17;6.47;;;18.70;99.90;;;;;;5030517;28;20282;-66
2023/04/23 12:11:02;;;;;;;8.00;6.80;;;19.10;99.90;;;;;;5035661;28;20252;-65
2023/04/23 12:13:30;;;;;;;9.07;7.03;;;19.20;99.90;;;;;;5040605;28;20306;-65
2023/04/23 12:16:01;;;;;;;6.50;5.87;;;18.90;99.90;;;;;;5042986;28;20554;-64
2023/04/23 12:18:30;;;;;;;6.40;5.80;;;18.90;99.90;;;;;;5043224;28;20194;-64
2023/04/23 12:21:05;;;;;;;6.20;5.57;;;18.70;99.90;;;;;;5036753;28;20225;-65
2023/04/23 12:23:32;;;;;;;5.77;5.23;;;18.80;99.90;;;;;;5043783;28;21035;-65
2023/04/23 12:25:57;;;;;;;8.33;5.63;;;18.80;99.90;;;;;;5047844;28;20281;-65
2023/04/23 12:28:23;;;;;;;6.97;6.37;;;18.80;99.90;;;;;;5043095;28;20198;-65
2023/04/23 12:30:49;;;;;;;5.47;5.00;;;19.20;99.90;;;;;;5044940;28;20205;-65
2023/04/23 12:33:15;;;;;;;6.30;4.93;;;19.30;99.90;;;;;;5042982;28;20616;-64
2023/04/23 12:35:48;;;;;;;5.67;4.57;;;19.40;99.90;;;;;;5042910;28;20259;-65
2023/04/23 12:38:27;;;;;;;6.60;4.77;;;19.80;99.90;;;;;;5039255;28;20214;-65
2023/04/23 12:40:58;;;;;;;4.37;3.97;;;20.40;99.90;;;;;;5046227;28;20344;-65
2023/04/23 12:43:25;;;;;;;3.80;3.43;;;21.10;99.10;;;;;;5047479;28;20336;-69